sensor_id;sensor_type;location;lat;lon;timestamp;P1;durP1;ratioP1;P2;durP2;ratioP2
44214;SDS011;29884;47.450;19.124;2023-01-19T00:02:17;1.77;;;1.10;;
44214;SDS011;29884;47.450;19.124;2023-01-19T00:04:43;1.90;;;1.00;;
44214;SDS011;29884;47.450;19.124;2023-01-19T00:07:10;2.00;;;1.10;;
44214;SDS011;29884;47.450;19.124;2023-01-19T00:09:35;1.20;;;0.90;;
44214;SDS011;29884;47.450;19.124;2023-01-19T00:12:10;1.73;;;0.95;;
44214;SDS011;29884;47.450;19.124;2023-01-19T00:14:36;1.80;;;1.10;;
44214;SDS011;29884;47.450;19.124;2023-01-19T00:17:01;2.08;;;1.02;;
44214;SDS011;29884;47.450;19.124;2023-01-19T00:19:27;1.77;;;1.10;;
44214;SDS011;29884;47.450;19.124;2023-01-19T00:21:53;2.70;;;1.30;;
44214;SDS011;29884;47.450;19.124;2023-01-19T00:24:19;2.45;;;1.48;;
44214;SDS011;29884;47.450;19.124;2023-01-19T00:26:45;2.70;;;1.35;;
44214;SDS011;29884;47.450;19.124;2023-01-19T00:29:11;2.42;;;1.60;;
44214;SDS011;29884;47.450;19.124;2023-01-19T00:31:38;2.33;;;1.58;;
44214;SDS011;29884;47.450;19.124;2023-01-19T00:34:04;2.10;;;1.52;;
44214;SDS011;29884;47.450;19.124;2023-01-19T00:36:31;2.80;;;1.80;;
44214;SDS011;29884;47.450;19.124;2023-01-19T00:38:58;2.58;;;1.58;;
44214;SDS011;29884;47.450;19.124;2023-01-19T00:41:24;2.15;;;1.52;;
44214;SDS011;29884;47.450;19.124;2023-01-19T00:44:09;3.42;;;1.65;;
44214;SDS011;29884;47.450;19.124;2023-01-19T00:46:36;2.22;;;1.45;;
44214;SDS011;29884;47.450;19.124;2023-01-19T00:49:02;2.78;;;1.70;;
44214;SDS011;29884;47.450;19.124;2023-01-19T00:51:29;2.35;;;1.40;;
44214;SDS011;29884;47.450;19.124;2023-01-19T00:53:55;2.38;;;1.20;;
44214;SDS011;29884;47.450;19.124;2023-01-19T00:56:21;1.73;;;1.30;;
44214;SDS011;29884;47.450;19.124;2023-01-19T00:58:46;2.30;;;1.23;;
44214;SDS011;29884;47.450;19.124;2023-01-19T01:01:12;3.05;;;1.35;;
44214;SDS011;29884;47.450;19.124;2023-01-19T01:03:38;2.70;;;1.83;;
44214;SDS011;29884;47.450;19.124;2023-01-19T01:06:03;3.72;;;2.47;;
44214;SDS011;29884;47.450;19.124;2023-01-19T01:08:32;4.40;;;2.75;;
44214;SDS011;29884;47.450;19.124;2023-01-19T01:10:58;3.38;;;2.63;;
44214;SDS011;29884;47.450;19.124;2023-01-19T01:13:24;4.68;;;2.85;;
44214;SDS011;29884;47.450;19.124;2023-01-19T01:15:51;4.35;;;2.95;;
44214;SDS011;29884;47.450;19.124;2023-01-19T01:18:18;3.20;;;2.55;;
44214;SDS011;29884;47.450;19.124;2023-01-19T01:20:44;4.85;;;2.67;;
44214;SDS011;29884;47.450;19.124;2023-01-19T01:23:11;4.00;;;3.20;;
44214;SDS011;29884;47.450;19.124;2023-01-19T01:25:37;4.40;;;3.30;;
44214;SDS011;29884;47.450;19.124;2023-01-19T01:28:04;4.63;;;2.72;;
44214;SDS011;29884;47.450;19.124;2023-01-19T01:30:32;5.35;;;3.17;;
44214;SDS011;29884;47.450;19.124;2023-01-19T01:32:59;5.05;;;3.45;;
44214;SDS011;29884;47.450;19.124;2023-01-19T01:35:25;5.30;;;3.72;;
44214;SDS011;29884;47.450;19.124;2023-01-19T01:37:51;6.50;;;3.50;;
44214;SDS011;29884;47.450;19.124;2023-01-19T01:40:17;6.32;;;3.83;;
44214;SDS011;29884;47.450;19.124;2023-01-19T01:42:44;4.65;;;3.47;;
44214;SDS011;29884;47.450;19.124;2023-01-19T01:47:47;4.03;;;3.50;;
44214;SDS011;29884;47.450;19.124;2023-01-19T01:50:22;4.38;;;3.60;;
44214;SDS011;29884;47.450;19.124;2023-01-19T01:53:01;5.70;;;3.80;;
44214;SDS011;29884;47.450;19.124;2023-01-19T01:55:31;5.55;;;4.25;;
44214;SDS011;29884;47.450;19.124;2023-01-19T01:58:02;4.72;;;3.63;;
44214;SDS011;29884;47.450;19.124;2023-01-19T02:00:29;4.53;;;3.30;;
44214;SDS011;29884;47.450;19.124;2023-01-19T02:03:18;4.20;;;3.35;;
44214;SDS011;29884;47.450;19.124;2023-01-19T02:05:46;4.38;;;3.38;;
44214;SDS011;29884;47.450;19.124;2023-01-19T02:08:20;4.07;;;3.17;;
44214;SDS011;29884;47.450;19.124;2023-01-19T02:11:11;3.70;;;2.97;;
44214;SDS011;29884;47.450;19.124;2023-01-19T02:13:56;3.17;;;2.50;;
44214;SDS011;29884;47.450;19.124;2023-01-19T02:16:22;4.85;;;2.28;;
44214;SDS011;29884;47.450;19.124;2023-01-19T02:18:48;2.47;;;2.00;;
44214;SDS011;29884;47.450;19.124;2023-01-19T02:21:18;3.03;;;1.95;;
44214;SDS011;29884;47.450;19.124;2023-01-19T02:24:09;2.30;;;1.63;;
44214;SDS011;29884;47.450;19.124;2023-01-19T02:26:36;2.72;;;1.85;;
44214;SDS011;29884;47.450;19.124;2023-01-19T02:29:06;2.92;;;2.08;;
44214;SDS011;29884;47.450;19.124;2023-01-19T02:31:35;2.45;;;1.58;;
44214;SDS011;29884;47.450;19.124;2023-01-19T02:34:03;2.75;;;1.80;;
44214;SDS011;29884;47.450;19.124;2023-01-19T02:37:15;1.75;;;1.27;;
44214;SDS011;29884;47.450;19.124;2023-01-19T02:39:25;1.80;;;1.30;;
44214;SDS011;29884;47.450;19.124;2023-01-19T02:41:57;1.70;;;1.10;;
44214;SDS011;29884;47.450;19.124;2023-01-19T02:44:27;1.83;;;1.10;;
44214;SDS011;29884;47.450;19.124;2023-01-19T02:46:54;1.88;;;1.20;;
44214;SDS011;29884;47.450;19.124;2023-01-19T02:49:21;1.70;;;1.10;;
44214;SDS011;29884;47.450;19.124;2023-01-19T02:51:47;1.42;;;0.95;;
44214;SDS011;29884;47.450;19.124;2023-01-19T02:57:11;1.35;;;0.90;;
44214;SDS011;29884;47.450;19.124;2023-01-19T02:59:55;1.77;;;0.90;;
44214;SDS011;29884;47.450;19.124;2023-01-19T03:06:03;1.55;;;0.90;;
44214;SDS011;29884;47.450;19.124;2023-01-19T03:11:20;1.23;;;0.93;;
44214;SDS011;29884;47.450;19.124;2023-01-19T03:16:40;1.20;;;0.73;;
44214;SDS011;29884;47.450;19.124;2023-01-19T03:19:16;1.27;;;0.73;;
44214;SDS011;29884;47.450;19.124;2023-01-19T03:21:57;2.28;;;0.60;;
44214;SDS011;29884;47.450;19.124;2023-01-19T03:24:27;1.17;;;0.70;;
44214;SDS011;29884;47.450;19.124;2023-01-19T03:27:00;1.75;;;0.60;;
44214;SDS011;29884;47.450;19.124;2023-01-19T03:29:31;1.15;;;0.68;;
44214;SDS011;29884;47.450;19.124;2023-01-19T03:32:00;1.13;;;0.65;;
44214;SDS011;29884;47.450;19.124;2023-01-19T03:34:31;1.00;;;0.68;;
44214;SDS011;29884;47.450;19.124;2023-01-19T03:36:59;0.93;;;0.60;;
44214;SDS011;29884;47.450;19.124;2023-01-19T03:39:27;1.00;;;0.70;;
44214;SDS011;29884;47.450;19.124;2023-01-19T03:41:56;0.50;;;0.43;;
44214;SDS011;29884;47.450;19.124;2023-01-19T03:44:25;1.55;;;0.52;;
44214;SDS011;29884;47.450;19.124;2023-01-19T03:46:53;0.88;;;0.60;;
44214;SDS011;29884;47.450;19.124;2023-01-19T03:49:20;1.00;;;0.50;;
44214;SDS011;29884;47.450;19.124;2023-01-19T03:51:46;1.50;;;0.60;;
44214;SDS011;29884;47.450;19.124;2023-01-19T03:54:12;0.80;;;0.50;;
44214;SDS011;29884;47.450;19.124;2023-01-19T03:56:38;0.88;;;0.50;;
44214;SDS011;29884;47.450;19.124;2023-01-19T03:59:04;0.68;;;0.40;;
44214;SDS011;29884;47.450;19.124;2023-01-19T04:01:30;0.68;;;0.50;;
44214;SDS011;29884;47.450;19.124;2023-01-19T04:03:55;0.95;;;0.65;;
44214;SDS011;29884;47.450;19.124;2023-01-19T04:06:21;0.98;;;0.45;;
44214;SDS011;29884;47.450;19.124;2023-01-19T04:08:48;0.70;;;0.40;;
44214;SDS011;29884;47.450;19.124;2023-01-19T04:11:14;0.60;;;0.40;;
44214;SDS011;29884;47.450;19.124;2023-01-19T04:13:40;0.60;;;0.40;;
44214;SDS011;29884;47.450;19.124;2023-01-19T04:16:06;0.60;;;0.40;;
44214;SDS011;29884;47.450;19.124;2023-01-19T04:18:33;0.93;;;0.50;;
44214;SDS011;29884;47.450;19.124;2023-01-19T04:21:00;0.50;;;0.40;;
44214;SDS011;29884;47.450;19.124;2023-01-19T04:23:27;0.80;;;0.40;;
44214;SDS011;29884;47.450;19.124;2023-01-19T04:26:00;0.98;;;0.40;;
44214;SDS011;29884;47.450;19.124;2023-01-19T04:28:28;0.50;;;0.40;;
44214;SDS011;29884;47.450;19.124;2023-01-19T04:30:54;0.80;;;0.50;;
44214;SDS011;29884;47.450;19.124;2023-01-19T04:33:20;0.63;;;0.30;;
44214;SDS011;29884;47.450;19.124;2023-01-19T04:35:46;0.55;;;0.40;;
44214;SDS011;29884;47.450;19.124;2023-01-19T04:38:13;0.63;;;0.40;;
44214;SDS011;29884;47.450;19.124;2023-01-19T04:40:39;0.50;;;0.40;;
44214;SDS011;29884;47.450;19.124;2023-01-19T04:43:05;0.98;;;0.50;;
44214;SDS011;29884;47.450;19.124;2023-01-19T04:45:31;0.60;;;0.40;;
44214;SDS011;29884;47.450;19.124;2023-01-19T04:47:57;0.70;;;0.40;;
44214;SDS011;29884;47.450;19.124;2023-01-19T04:50:22;2.28;;;1.42;;
44214;SDS011;29884;47.450;19.124;2023-01-19T04:52:49;1.63;;;0.75;;
44214;SDS011;29884;47.450;19.124;2023-01-19T04:55:14;0.70;;;0.40;;
44214;SDS011;29884;47.450;19.124;2023-01-19T04:57:41;0.43;;;0.30;;
44214;SDS011;29884;47.450;19.124;2023-01-19T05:00:08;0.28;;;0.20;;
44214;SDS011;29884;47.450;19.124;2023-01-19T05:02:34;0.30;;;0.20;;
44214;SDS011;29884;47.450;19.124;2023-01-19T05:05:00;0.43;;;0.20;;
44214;SDS011;29884;47.450;19.124;2023-01-19T05:07:26;0.38;;;0.15;;
44214;SDS011;29884;47.450;19.124;2023-01-19T05:09:51;0.20;;;0.10;;
44214;SDS011;29884;47.450;19.124;2023-01-19T05:12:18;0.30;;;0.20;;
44214;SDS011;29884;47.450;19.124;2023-01-19T05:14:44;0.52;;;0.20;;
44214;SDS011;29884;47.450;19.124;2023-01-19T05:17:10;0.30;;;0.20;;
44214;SDS011;29884;47.450;19.124;2023-01-19T05:19:36;0.40;;;0.20;;
44214;SDS011;29884;47.450;19.124;2023-01-19T05:22:02;0.17;;;0.10;;
44214;SDS011;29884;47.450;19.124;2023-01-19T05:24:29;0.20;;;0.20;;
44214;SDS011;29884;47.450;19.124;2023-01-19T05:26:55;0.20;;;0.10;;
44214;SDS011;29884;47.450;19.124;2023-01-19T05:29:20;0.20;;;0.10;;
44214;SDS011;29884;47.450;19.124;2023-01-19T05:31:46;0.60;;;0.50;;
44214;SDS011;29884;47.450;19.124;2023-01-19T05:34:12;0.30;;;0.20;;
44214;SDS011;29884;47.450;19.124;2023-01-19T05:36:38;0.22;;;0.20;;
44214;SDS011;29884;47.450;19.124;2023-01-19T05:39:04;0.22;;;0.10;;
44214;SDS011;29884;47.450;19.124;2023-01-19T05:41:30;0.40;;;0.20;;
44214;SDS011;29884;47.450;19.124;2023-01-19T05:43:56;0.43;;;0.30;;
44214;SDS011;29884;47.450;19.124;2023-01-19T05:46:22;0.35;;;0.20;;
44214;SDS011;29884;47.450;19.124;2023-01-19T05:48:48;0.70;;;0.13;;
44214;SDS011;29884;47.450;19.124;2023-01-19T05:51:14;0.30;;;0.20;;
44214;SDS011;29884;47.450;19.124;2023-01-19T05:53:40;0.50;;;0.30;;
44214;SDS011;29884;47.450;19.124;2023-01-19T05:56:06;0.77;;;0.20;;
44214;SDS011;29884;47.450;19.124;2023-01-19T05:58:33;1.95;;;0.20;;
44214;SDS011;29884;47.450;19.124;2023-01-19T06:01:06;0.43;;;0.28;;
44214;SDS011;29884;47.450;19.124;2023-01-19T06:03:34;0.40;;;0.20;;
44214;SDS011;29884;47.450;19.124;2023-01-19T06:06:01;0.50;;;0.30;;
44214;SDS011;29884;47.450;19.124;2023-01-19T06:08:27;0.32;;;0.20;;
44214;SDS011;29884;47.450;19.124;2023-01-19T06:10:53;0.22;;;0.10;;
44214;SDS011;29884;47.450;19.124;2023-01-19T06:13:19;0.70;;;0.40;;
44214;SDS011;29884;47.450;19.124;2023-01-19T06:15:45;0.73;;;0.47;;
44214;SDS011;29884;47.450;19.124;2023-01-19T06:18:11;9.95;;;2.97;;
44214;SDS011;29884;47.450;19.124;2023-01-19T06:20:38;5.65;;;1.73;;
44214;SDS011;29884;47.450;19.124;2023-01-19T06:23:04;1.58;;;0.73;;
44214;SDS011;29884;47.450;19.124;2023-01-19T06:25:30;0.90;;;0.40;;
44214;SDS011;29884;47.450;19.124;2023-01-19T06:27:56;2.40;;;0.77;;
44214;SDS011;29884;47.450;19.124;2023-01-19T06:30:21;0.70;;;0.40;;
44214;SDS011;29884;47.450;19.124;2023-01-19T06:32:47;1.25;;;0.50;;
44214;SDS011;29884;47.450;19.124;2023-01-19T06:35:13;2.15;;;0.98;;
44214;SDS011;29884;47.450;19.124;2023-01-19T06:37:39;1.85;;;0.70;;
44214;SDS011;29884;47.450;19.124;2023-01-19T06:40:05;1.38;;;0.60;;
44214;SDS011;29884;47.450;19.124;2023-01-19T06:42:32;1.20;;;0.57;;
44214;SDS011;29884;47.450;19.124;2023-01-19T06:44:58;0.65;;;0.40;;
44214;SDS011;29884;47.450;19.124;2023-01-19T06:47:24;2.25;;;1.33;;
44214;SDS011;29884;47.450;19.124;2023-01-19T06:49:49;1.90;;;0.80;;
44214;SDS011;29884;47.450;19.124;2023-01-19T06:52:15;2.90;;;1.20;;
44214;SDS011;29884;47.450;19.124;2023-01-19T06:54:45;2.05;;;0.90;;
44214;SDS011;29884;47.450;19.124;2023-01-19T06:57:11;3.10;;;1.27;;
44214;SDS011;29884;47.450;19.124;2023-01-19T06:59:38;2.28;;;1.00;;
44214;SDS011;29884;47.450;19.124;2023-01-19T07:02:03;2.53;;;0.80;;
44214;SDS011;29884;47.450;19.124;2023-01-19T07:04:30;1.73;;;0.90;;
44214;SDS011;29884;47.450;19.124;2023-01-19T07:06:56;1.45;;;0.75;;
44214;SDS011;29884;47.450;19.124;2023-01-19T07:09:21;0.73;;;0.40;;
44214;SDS011;29884;47.450;19.124;2023-01-19T07:11:49;0.75;;;0.47;;
44214;SDS011;29884;47.450;19.124;2023-01-19T07:14:17;0.93;;;0.60;;
44214;SDS011;29884;47.450;19.124;2023-01-19T07:16:43;1.13;;;0.60;;
44214;SDS011;29884;47.450;19.124;2023-01-19T07:19:08;0.80;;;0.50;;
44214;SDS011;29884;47.450;19.124;2023-01-19T07:21:35;2.00;;;0.85;;
44214;SDS011;29884;47.450;19.124;2023-01-19T07:24:01;1.52;;;0.80;;
44214;SDS011;29884;47.450;19.124;2023-01-19T07:26:27;3.30;;;1.08;;
44214;SDS011;29884;47.450;19.124;2023-01-19T07:28:52;1.70;;;0.90;;
44214;SDS011;29884;47.450;19.124;2023-01-19T07:31:18;2.22;;;1.20;;
44214;SDS011;29884;47.450;19.124;2023-01-19T07:33:44;2.53;;;1.10;;
44214;SDS011;29884;47.450;19.124;2023-01-19T07:36:10;3.00;;;1.45;;
44214;SDS011;29884;47.450;19.124;2023-01-19T07:38:37;4.25;;;2.25;;
44214;SDS011;29884;47.450;19.124;2023-01-19T07:41:03;2.63;;;1.60;;
44214;SDS011;29884;47.450;19.124;2023-01-19T07:43:31;2.47;;;1.40;;
44214;SDS011;29884;47.450;19.124;2023-01-19T07:45:57;1.98;;;1.33;;
44214;SDS011;29884;47.450;19.124;2023-01-19T07:48:24;2.17;;;1.48;;
44214;SDS011;29884;47.450;19.124;2023-01-19T07:50:50;3.13;;;1.75;;
44214;SDS011;29884;47.450;19.124;2023-01-19T07:53:16;3.03;;;2.00;;
44214;SDS011;29884;47.450;19.124;2023-01-19T07:55:42;4.85;;;2.17;;
44214;SDS011;29884;47.450;19.124;2023-01-19T07:58:08;2.85;;;1.80;;
44214;SDS011;29884;47.450;19.124;2023-01-19T08:00:34;5.38;;;2.55;;
44214;SDS011;29884;47.450;19.124;2023-01-19T08:03:02;3.88;;;2.20;;
44214;SDS011;29884;47.450;19.124;2023-01-19T08:05:29;3.05;;;1.67;;
44214;SDS011;29884;47.450;19.124;2023-01-19T08:07:56;4.55;;;2.67;;
44214;SDS011;29884;47.450;19.124;2023-01-19T08:10:23;3.10;;;1.90;;
44214;SDS011;29884;47.450;19.124;2023-01-19T08:12:53;3.17;;;2.10;;
44214;SDS011;29884;47.450;19.124;2023-01-19T08:15:20;6.07;;;3.08;;
44214;SDS011;29884;47.450;19.124;2023-01-19T08:17:58;5.80;;;3.00;;
44214;SDS011;29884;47.450;19.124;2023-01-19T08:20:33;3.75;;;2.13;;
44214;SDS011;29884;47.450;19.124;2023-01-19T08:22:59;2.80;;;2.00;;
44214;SDS011;29884;47.450;19.124;2023-01-19T08:25:47;3.28;;;2.10;;
44214;SDS011;29884;47.450;19.124;2023-01-19T08:28:13;2.80;;;1.73;;
44214;SDS011;29884;47.450;19.124;2023-01-19T08:30:40;3.53;;;2.13;;
44214;SDS011;29884;47.450;19.124;2023-01-19T08:33:08;4.65;;;2.80;;
44214;SDS011;29884;47.450;19.124;2023-01-19T08:35:35;7.68;;;3.72;;
44214;SDS011;29884;47.450;19.124;2023-01-19T08:38:05;4.65;;;2.55;;
44214;SDS011;29884;47.450;19.124;2023-01-19T08:40:34;7.18;;;3.63;;
44214;SDS011;29884;47.450;19.124;2023-01-19T08:43:03;4.82;;;3.03;;
44214;SDS011;29884;47.450;19.124;2023-01-19T08:45:36;4.32;;;2.47;;
44214;SDS011;29884;47.450;19.124;2023-01-19T08:48:12;3.95;;;2.35;;
44214;SDS011;29884;47.450;19.124;2023-01-19T08:50:39;3.75;;;2.25;;
44214;SDS011;29884;47.450;19.124;2023-01-19T08:53:05;3.60;;;2.30;;
44214;SDS011;29884;47.450;19.124;2023-01-19T08:55:32;4.07;;;2.35;;
44214;SDS011;29884;47.450;19.124;2023-01-19T08:58:00;3.88;;;2.42;;
44214;SDS011;29884;47.450;19.124;2023-01-19T09:00:28;3.97;;;2.58;;
44214;SDS011;29884;47.450;19.124;2023-01-19T09:02:55;7.72;;;2.70;;
44214;SDS011;29884;47.450;19.124;2023-01-19T09:05:22;4.40;;;2.85;;
44214;SDS011;29884;47.450;19.124;2023-01-19T09:07:48;4.88;;;3.10;;
44214;SDS011;29884;47.450;19.124;2023-01-19T09:10:15;5.00;;;3.60;;
44214;SDS011;29884;47.450;19.124;2023-01-19T09:12:42;4.88;;;3.50;;
44214;SDS011;29884;47.450;19.124;2023-01-19T09:15:09;5.10;;;3.50;;
44214;SDS011;29884;47.450;19.124;2023-01-19T09:17:37;5.93;;;3.42;;
44214;SDS011;29884;47.450;19.124;2023-01-19T09:20:04;5.82;;;3.58;;
44214;SDS011;29884;47.450;19.124;2023-01-19T09:22:30;5.53;;;2.92;;
44214;SDS011;29884;47.450;19.124;2023-01-19T09:24:57;5.88;;;3.63;;
44214;SDS011;29884;47.450;19.124;2023-01-19T09:27:23;10.23;;;4.68;;
44214;SDS011;29884;47.450;19.124;2023-01-19T09:29:49;8.43;;;4.93;;
44214;SDS011;29884;47.450;19.124;2023-01-19T09:32:18;7.10;;;3.58;;
44214;SDS011;29884;47.450;19.124;2023-01-19T09:34:45;5.43;;;3.75;;
44214;SDS011;29884;47.450;19.124;2023-01-19T09:37:11;8.60;;;4.85;;
44214;SDS011;29884;47.450;19.124;2023-01-19T09:39:37;5.70;;;3.95;;
44214;SDS011;29884;47.450;19.124;2023-01-19T09:42:10;6.38;;;3.75;;
44214;SDS011;29884;47.450;19.124;2023-01-19T09:44:39;5.05;;;3.50;;
44214;SDS011;29884;47.450;19.124;2023-01-19T09:47:13;5.10;;;3.45;;
44214;SDS011;29884;47.450;19.124;2023-01-19T09:50:16;5.50;;;3.42;;
44214;SDS011;29884;47.450;19.124;2023-01-19T09:52:51;5.13;;;3.70;;
44214;SDS011;29884;47.450;19.124;2023-01-19T09:55:25;5.70;;;3.17;;
44214;SDS011;29884;47.450;19.124;2023-01-19T09:57:52;4.95;;;3.05;;
44214;SDS011;29884;47.450;19.124;2023-01-19T10:00:18;5.43;;;2.60;;
44214;SDS011;29884;47.450;19.124;2023-01-19T10:03:02;5.38;;;3.70;;
44214;SDS011;29884;47.450;19.124;2023-01-19T10:05:43;6.82;;;3.75;;
44214;SDS011;29884;47.450;19.124;2023-01-19T10:11:19;7.00;;;3.08;;
44214;SDS011;29884;47.450;19.124;2023-01-19T10:14:14;7.82;;;5.55;;
44214;SDS011;29884;47.450;19.124;2023-01-19T10:19:34;12.27;;;7.80;;
44214;SDS011;29884;47.450;19.124;2023-01-19T10:22:07;11.57;;;8.25;;
44214;SDS011;29884;47.450;19.124;2023-01-19T10:24:45;12.20;;;8.43;;
44214;SDS011;29884;47.450;19.124;2023-01-19T10:27:17;12.88;;;8.85;;
44214;SDS011;29884;47.450;19.124;2023-01-19T10:29:45;11.70;;;7.95;;
44214;SDS011;29884;47.450;19.124;2023-01-19T10:32:28;13.07;;;7.72;;
44214;SDS011;29884;47.450;19.124;2023-01-19T10:34:57;9.85;;;7.43;;
44214;SDS011;29884;47.450;19.124;2023-01-19T10:39:56;9.65;;;7.32;;
44214;SDS011;29884;47.450;19.124;2023-01-19T10:42:35;9.82;;;6.80;;
44214;SDS011;29884;47.450;19.124;2023-01-19T10:45:02;9.82;;;7.28;;
44214;SDS011;29884;47.450;19.124;2023-01-19T10:47:38;12.23;;;7.38;;
44214;SDS011;29884;47.450;19.124;2023-01-19T10:50:17;8.00;;;5.75;;
44214;SDS011;29884;47.450;19.124;2023-01-19T10:52:50;6.55;;;4.60;;
44214;SDS011;29884;47.450;19.124;2023-01-19T10:55:34;5.78;;;4.32;;
44214;SDS011;29884;47.450;19.124;2023-01-19T10:58:02;6.30;;;4.53;;
44214;SDS011;29884;47.450;19.124;2023-01-19T11:00:33;11.10;;;5.07;;
44214;SDS011;29884;47.450;19.124;2023-01-19T11:03:02;8.33;;;5.83;;
44214;SDS011;29884;47.450;19.124;2023-01-19T11:05:30;6.00;;;4.53;;
44214;SDS011;29884;47.450;19.124;2023-01-19T11:07:58;4.95;;;4.03;;
44214;SDS011;29884;47.450;19.124;2023-01-19T11:15:23;6.70;;;3.70;;
44214;SDS011;29884;47.450;19.124;2023-01-19T11:17:53;5.85;;;4.53;;
44214;SDS011;29884;47.450;19.124;2023-01-19T11:20:27;5.72;;;4.35;;
44214;SDS011;29884;47.450;19.124;2023-01-19T11:23:03;5.18;;;4.10;;
44214;SDS011;29884;47.450;19.124;2023-01-19T11:25:31;6.25;;;4.50;;
44214;SDS011;29884;47.450;19.124;2023-01-19T11:27:59;6.43;;;4.50;;
44214;SDS011;29884;47.450;19.124;2023-01-19T11:30:26;8.18;;;4.95;;
44214;SDS011;29884;47.450;19.124;2023-01-19T11:32:52;7.05;;;4.65;;
44214;SDS011;29884;47.450;19.124;2023-01-19T11:38:13;5.88;;;4.45;;
44214;SDS011;29884;47.450;19.124;2023-01-19T11:40:45;5.90;;;3.72;;
44214;SDS011;29884;47.450;19.124;2023-01-19T11:43:19;6.13;;;4.60;;
44214;SDS011;29884;47.450;19.124;2023-01-19T11:45:47;7.68;;;5.65;;
44214;SDS011;29884;47.450;19.124;2023-01-19T11:48:18;7.20;;;5.53;;
44214;SDS011;29884;47.450;19.124;2023-01-19T11:50:51;8.15;;;5.30;;
44214;SDS011;29884;47.450;19.124;2023-01-19T11:55:57;7.05;;;5.35;;
44214;SDS011;29884;47.450;19.124;2023-01-19T11:58:41;5.88;;;4.68;;
44214;SDS011;29884;47.450;19.124;2023-01-19T12:06:18;7.38;;;5.78;;
44214;SDS011;29884;47.450;19.124;2023-01-19T12:08:53;11.15;;;7.18;;
44214;SDS011;29884;47.450;19.124;2023-01-19T12:11:45;9.98;;;6.68;;
44214;SDS011;29884;47.450;19.124;2023-01-19T12:14:22;9.63;;;6.13;;
44214;SDS011;29884;47.450;19.124;2023-01-19T12:16:58;9.88;;;6.72;;
44214;SDS011;29884;47.450;19.124;2023-01-19T12:19:29;9.00;;;6.43;;
44214;SDS011;29884;47.450;19.124;2023-01-19T12:22:05;9.05;;;6.53;;
44214;SDS011;29884;47.450;19.124;2023-01-19T12:24:38;10.85;;;6.20;;
44214;SDS011;29884;47.450;19.124;2023-01-19T12:27:15;8.73;;;5.97;;
44214;SDS011;29884;47.450;19.124;2023-01-19T12:29:47;9.40;;;6.22;;
44214;SDS011;29884;47.450;19.124;2023-01-19T12:37:30;9.88;;;6.53;;
44214;SDS011;29884;47.450;19.124;2023-01-19T12:40:03;11.45;;;7.57;;
44214;SDS011;29884;47.450;19.124;2023-01-19T12:42:45;11.20;;;6.97;;
44214;SDS011;29884;47.450;19.124;2023-01-19T12:45:16;11.23;;;7.40;;
44214;SDS011;29884;47.450;19.124;2023-01-19T12:47:51;9.10;;;6.50;;
44214;SDS011;29884;47.450;19.124;2023-01-19T12:50:17;9.60;;;6.45;;
44214;SDS011;29884;47.450;19.124;2023-01-19T12:52:48;10.15;;;6.57;;
44214;SDS011;29884;47.450;19.124;2023-01-19T12:58:00;8.95;;;6.40;;
44214;SDS011;29884;47.450;19.124;2023-01-19T13:00:46;10.40;;;7.15;;
44214;SDS011;29884;47.450;19.124;2023-01-19T13:21:13;10.80;;;6.47;;
44214;SDS011;29884;47.450;19.124;2023-01-19T13:24:01;10.35;;;6.63;;
44214;SDS011;29884;47.450;19.124;2023-01-19T13:26:32;10.32;;;7.55;;
44214;SDS011;29884;47.450;19.124;2023-01-19T13:29:06;10.95;;;7.18;;
44214;SDS011;29884;47.450;19.124;2023-01-19T13:31:54;10.05;;;7.05;;
44214;SDS011;29884;47.450;19.124;2023-01-19T13:34:26;12.37;;;8.50;;
44214;SDS011;29884;47.450;19.124;2023-01-19T13:37:28;8.13;;;6.18;;
44214;SDS011;29884;47.450;19.124;2023-01-19T13:39:59;8.60;;;6.47;;
44214;SDS011;29884;47.450;19.124;2023-01-19T13:42:43;8.80;;;6.68;;
44214;SDS011;29884;47.450;19.124;2023-01-19T13:48:01;9.02;;;6.45;;
44214;SDS011;29884;47.450;19.124;2023-01-19T13:50:31;8.68;;;6.55;;
44214;SDS011;29884;47.450;19.124;2023-01-19T13:52:58;9.45;;;6.82;;
44214;SDS011;29884;47.450;19.124;2023-01-19T13:55:26;10.30;;;6.72;;
44214;SDS011;29884;47.450;19.124;2023-01-19T13:57:53;9.68;;;7.68;;
44214;SDS011;29884;47.450;19.124;2023-01-19T14:00:23;9.52;;;7.30;;
44214;SDS011;29884;47.450;19.124;2023-01-19T14:02:57;11.73;;;7.70;;
44214;SDS011;29884;47.450;19.124;2023-01-19T14:08:10;11.02;;;7.43;;
44214;SDS011;29884;47.450;19.124;2023-01-19T14:10:38;8.45;;;6.35;;
44214;SDS011;29884;47.450;19.124;2023-01-19T14:13:10;7.97;;;6.57;;
44214;SDS011;29884;47.450;19.124;2023-01-19T14:15:39;11.55;;;8.02;;
44214;SDS011;29884;47.450;19.124;2023-01-19T14:18:06;9.25;;;5.90;;
44214;SDS011;29884;47.450;19.124;2023-01-19T14:20:33;10.48;;;7.03;;
44214;SDS011;29884;47.450;19.124;2023-01-19T14:23:01;9.20;;;7.38;;
44214;SDS011;29884;47.450;19.124;2023-01-19T14:25:31;8.98;;;7.30;;
44214;SDS011;29884;47.450;19.124;2023-01-19T14:33:42;9.15;;;6.72;;
44214;SDS011;29884;47.450;19.124;2023-01-19T14:38:45;9.68;;;7.40;;
44214;SDS011;29884;47.450;19.124;2023-01-19T14:41:12;10.23;;;7.90;;
44214;SDS011;29884;47.450;19.124;2023-01-19T14:44:01;11.70;;;8.02;;
44214;SDS011;29884;47.450;19.124;2023-01-19T14:46:35;12.10;;;8.05;;
44214;SDS011;29884;47.450;19.124;2023-01-19T14:49:03;12.25;;;8.77;;
44214;SDS011;29884;47.450;19.124;2023-01-19T14:51:30;10.65;;;7.40;;
44214;SDS011;29884;47.450;19.124;2023-01-19T14:53:57;11.50;;;8.13;;
44214;SDS011;29884;47.450;19.124;2023-01-19T14:56:29;12.52;;;7.40;;
44214;SDS011;29884;47.450;19.124;2023-01-19T14:58:56;12.68;;;8.18;;
44214;SDS011;29884;47.450;19.124;2023-01-19T15:01:24;12.10;;;8.07;;
44214;SDS011;29884;47.450;19.124;2023-01-19T15:03:52;14.13;;;8.77;;
44214;SDS011;29884;47.450;19.124;2023-01-19T15:06:22;11.68;;;8.32;;
44214;SDS011;29884;47.450;19.124;2023-01-19T15:08:49;12.70;;;8.40;;
44214;SDS011;29884;47.450;19.124;2023-01-19T15:13:56;12.23;;;9.27;;
44214;SDS011;29884;47.450;19.124;2023-01-19T15:16:23;13.27;;;8.80;;
44214;SDS011;29884;47.450;19.124;2023-01-19T15:18:49;13.05;;;8.05;;
44214;SDS011;29884;47.450;19.124;2023-01-19T15:21:16;15.35;;;9.85;;
44214;SDS011;29884;47.450;19.124;2023-01-19T15:23:50;16.52;;;10.05;;
44214;SDS011;29884;47.450;19.124;2023-01-19T15:26:22;17.17;;;10.90;;
44214;SDS011;29884;47.450;19.124;2023-01-19T15:28:50;12.88;;;9.25;;
44214;SDS011;29884;47.450;19.124;2023-01-19T15:31:22;15.60;;;9.95;;
44214;SDS011;29884;47.450;19.124;2023-01-19T15:33:50;15.55;;;10.00;;
44214;SDS011;29884;47.450;19.124;2023-01-19T15:36:16;15.85;;;10.18;;
44214;SDS011;29884;47.450;19.124;2023-01-19T15:38:44;15.68;;;10.07;;
44214;SDS011;29884;47.450;19.124;2023-01-19T15:41:14;15.63;;;10.35;;
44214;SDS011;29884;47.450;19.124;2023-01-19T15:43:53;16.45;;;10.30;;
44214;SDS011;29884;47.450;19.124;2023-01-19T15:46:20;19.08;;;11.48;;
44214;SDS011;29884;47.450;19.124;2023-01-19T15:48:47;20.83;;;11.63;;
44214;SDS011;29884;47.450;19.124;2023-01-19T15:51:15;19.55;;;11.90;;
44214;SDS011;29884;47.450;19.124;2023-01-19T15:53:42;17.83;;;11.13;;
44214;SDS011;29884;47.450;19.124;2023-01-19T15:56:19;15.38;;;10.55;;
44214;SDS011;29884;47.450;19.124;2023-01-19T15:58:49;14.05;;;9.45;;
44214;SDS011;29884;47.450;19.124;2023-01-19T16:01:17;19.30;;;11.27;;
44214;SDS011;29884;47.450;19.124;2023-01-19T16:03:45;19.17;;;9.90;;
44214;SDS011;29884;47.450;19.124;2023-01-19T16:06:11;18.65;;;11.15;;